Decherd, TN (37324)

3:40 PM CDT on May 24, 2015 (GMT -0500)
Farve Circle | | Change Station
CLOSE
Current Station
Personal Weather Station
Location: Winchester, TN
Elevation: 968 ft
Nearby Weather Stations

Elev 968 ft 35.20 °N, 86.11 °W | Updated 23 seconds ago

Overcast
Overcast
80.7 °F
Feels Like 83 °F
N
5.0
Wind Variable Wind from ESE
Gusts 5.0 mph

Today
High -- | Low -- °F
--% Chance of Precip.
Yesterday
High -- | Low -- °F
Precip. -- in
5:34 AM 7:48 PM
Waxing Crescent, 42% visible
Pressure 30.18 in
Visibility 10.0 miles
Clouds Mostly Cloudy 4100 ft
Overcast 5000 ft
Heat Index 83 °F
Dew Point 66 °F
Humidity 60%
Rainfall 0.00 in
Snow Depth Not available.
UV 2 out of 12
Pollen 7.70 out of 12
Air Quality Not available.
Flu Activity Sporadic
METAR KBGF 242035Z AUTO 14010KT 10SM BKN041 OVC050 26/18 A3018 RMK

More Conditions Fewer Conditions

Pressure 30.18 in
Visibility 10.0 miles
Clouds Mostly Cloudy 4100 ft
Overcast 5000 ft
Heat Index 83 °F
Dew Point 66 °F
Humidity 60%
Rainfall 0.00 in
Snow Depth Not available.
UV 2 out of 12
Pollen 7.70 out of 12
Air Quality Not available.
Flu Activity Sporadic
METAR KBGF 242035Z AUTO 14010KT 10SM BKN041 OVC050 26/18 A3018 RMK

More Conditions Fewer Conditions

10-Day Weather Forecast

Almanac

Astronomy

May. 24, 2015 Rise Set
Actual Time
Civil Twilight
Nautical Twilight
Astronomical Twilight
Moon
Length of Visible Light
Length of Day
Tomorrow will be .
, % of the Moon is Illuminated

Today's Extremes

State Highs State Lows

Community

WunderPhotos

Upload Photos

1,823,862 photos uploaded!

WunderBlogs® & News

Nearby

Air Quality

  Air Quality AQ Index Pollutant
Not available.

Snow Depth

Station Depth Elevation

Earthquake Activity

City Distance Mag. Time & Date
Minimum magnitude displayed is 2.5.

Coastal Water Temperatures

Place Temperature

Stations

Nearby Weather Stations

Station Location Temp. Windchill Dew Point Humidity Wind Precip. Elev Updated Type